This is the latest recevied weather packets stored in our database for station/object W6SNO-1. If no packets are shown the sender has not sent any weather packets the latest 10 day(s).
| Time | Temp. | Humidity | Pressure | Rain* | Wind** | Luminosity | Snow |
|---|---|---|---|---|---|---|---|
| 1787621655 | 23.89° C | 63% | 1014.6 hPa | 0 mm | - | 28 W/m² | - |
| 1787621356 | 24.44° C | 63% | 1014.6 hPa | 0 mm | - | 29 W/m² | - |
| 1787621052 | 24.44° C | 62% | 1014.6 hPa | 0 mm | - | 30 W/m² | - |
| 1787620747 | 25° C | 61% | 1014.4 hPa | 0 mm | - | 40 W/m² | - |
| 1787620442 | 25° C | 61% | 1014.4 hPa | 0 mm | - | 44 W/m² | - |
| 1787620138 | 25.56° C | 60% | 1014.4 hPa | 0 mm | - | 37 W/m² | - |
| 1787619833 | 25.56° C | 59% | 1014.4 hPa | 0 mm | - | 37 W/m² | - |
| 1787619528 | 25.56° C | 60% | 1014.3 hPa | 0 mm | - | 50 W/m² | - |
| 1787619224 | 26.11° C | 58% | 1014.4 hPa | 0 mm | - | 125 W/m² | - |
| 1787618923 | 26.67° C | 58% | 1014.4 hPa | 0 mm | - | 121 W/m² | - |
| 1787618619 | 26.67° C | 58% | 1014.1 hPa | 0 mm | - | 72 W/m² | - |
| 1787618316 | 26.67° C | 57% | 1014.3 hPa | 0 mm | - | 49 W/m² | - |
| 1787618013 | 27.22° C | 57% | 1014.3 hPa | 0 mm | - | 123 W/m² | - |
| 1787617713 | 27.22° C | 56% | 1014.3 hPa | 0 mm | - | 233 W/m² | - |
| 1787617412 | 27.78° C | 56% | 1014.2 hPa | 0 mm | - | 267 W/m² | - |
| 1787616807 | 27.78° C | 56% | 1014.2 hPa | 0 mm | - | 319 W/m² | - |
| 1787616507 | 27.78° C | 56% | 1014.1 hPa | 0 mm | - | 319 W/m² | - |
| 1787616206 | 27.78° C | 56% | 1014.2 hPa | 0 mm | - | 335 W/m² | - |
| 1787615905 | 28.33° C | 54% | 1014.1 hPa | 0 mm | - | 344 W/m² | - |
| 1787615600 | 28.33° C | 54% | 1014.2 hPa | 0 mm | - | 370 W/m² | - |
| 1787615295 | 28.89° C | 54% | 1014.1 hPa | 0 mm | - | 375 W/m² | - |
| 1787614991 | 28.89° C | 53% | 1013.8 hPa | 0 mm | - | 392 W/m² | - |
| 1787614687 | 28.89° C | 52% | 1014.1 hPa | 0 mm | - | 406 W/m² | - |
| 1787614384 | 30° C | 49% | 1013.9 hPa | 0 mm | - | 423 W/m² | - |
| 1787614081 | 29.44° C | 51% | 1013.9 hPa | 0 mm | - | 447 W/m² | - |
* Rain latest hour (hover to see other rain measurements)
** Current wind speed in m/s (hover to see current wind gust speed)